Time;durP1;ratioP1;P1;durP2;ratioP2;P2;SDS_P1;SDS_P2;PMS_P1;PMS_P2;Temp;Humidity;BMP_temperature;BMP_pressure;BME280_temperature;BME280_humidity;BME280_pressure;Samples;Min_cycle;Max_cycle;Signal;HPM_P1;HPM_P2
2022/12/28 00:02:36;;;;;;;15.60;7.30;;;;;;;3.83;87.64;101158.50;107747;1252;97227;-58
2022/12/28 00:05:17;;;;;;;10.30;5.60;;;;;;;3.79;87.58;101152.23;107698;1249;88692;-60
2022/12/28 00:07:57;;;;;;;12.80;6.00;;;;;;;3.77;87.77;101151.23;107699;1252;93954;-59
2022/12/28 00:10:32;;;;;;;11.90;6.20;;;;;;;3.78;87.56;101146.13;107714;1250;79759;-58
2022/12/28 00:13:14;;;;;;;13.10;5.80;;;;;;;3.77;87.82;101149.56;107772;1250;82353;-56
2022/12/28 00:15:51;;;;;;;11.80;5.40;;;;;;;3.81;87.44;101147.28;107697;1250;98099;-58
2022/12/28 00:18:34;;;;;;;12.60;6.40;;;;;;;3.80;87.68;101144.85;107749;1250;88784;-58
2022/12/28 00:21:13;;;;;;;11.60;6.00;;;;;;;3.76;87.74;101143.08;107771;1249;95727;-59
2022/12/28 00:23:52;;;;;;;10.20;5.30;;;;;;;3.76;87.67;101144.88;107771;1250;79783;-58
2022/12/28 00:26:34;;;;;;;13.00;5.50;;;;;;;3.73;87.68;101149.71;107764;1250;83217;-57
2022/12/28 00:29:14;;;;;;;12.50;5.80;;;;;;;3.72;87.56;101150.38;107725;1250;97315;-58
2022/12/28 00:31:56;;;;;;;11.60;5.20;;;;;;;3.72;87.52;101148.95;107782;1250;88444;-57
2022/12/28 00:34:35;;;;;;;11.60;6.10;;;;;;;3.71;87.64;101150.65;107713;1250;95932;-58
2022/12/28 00:37:17;;;;;;;14.20;6.40;;;;;;;3.73;87.71;101152.05;107737;1250;79769;-58
2022/12/28 00:40:02;;;;;;;13.50;5.60;;;;;;;3.71;87.60;101153.44;107714;1252;82681;-58
2022/12/28 00:42:43;;;;;;;13.70;6.10;;;;;;;3.75;87.69;101155.29;107700;1250;97150;-59
2022/12/28 00:45:24;;;;;;;11.40;5.80;;;;;;;3.77;87.33;101158.13;107709;1249;87583;-59
2022/12/28 00:48:03;;;;;;;14.10;5.90;;;;;;;3.69;87.59;101159.15;107753;1250;95809;-57
2022/12/28 00:50:43;;;;;;;12.70;5.70;;;;;;;3.66;87.58;101164.89;107688;1249;80152;-59
2022/12/28 00:53:23;;;;;;;13.20;5.70;;;;;;;3.63;87.78;101169.62;107727;1250;82069;-58
2022/12/28 00:56:09;;;;;;;9.70;5.50;;;;;;;3.63;87.72;101174.45;107719;1250;98187;-57
2022/12/28 00:58:47;;;;;;;11.80;5.50;;;;;;;3.64;87.63;101172.75;107736;1250;88379;-53
2022/12/28 01:01:25;;;;;;;11.90;5.70;;;;;;;3.65;87.70;101174.78;107709;1249;93521;-52
2022/12/28 01:04:05;;;;;;;11.50;5.60;;;;;;;3.67;87.62;101175.30;107699;1250;80113;-48
2022/12/28 01:06:46;;;;;;;13.60;5.70;;;;;;;3.64;87.65;101177.35;107720;1250;83209;-58
2022/12/28 01:09:30;;;;;;;15.10;5.80;;;;;;;3.62;87.56;101167.04;107743;1250;96891;-59
2022/12/28 01:12:07;;;;;;;8.40;4.70;;;;;;;3.56;87.71;101174.28;107758;1250;87194;-58
2022/12/28 01:14:49;;;;;;;10.10;5.20;;;;;;;3.49;87.30;101168.69;107808;1250;95601;-58
2022/12/28 01:17:34;;;;;;;11.30;5.30;;;;;;;3.45;87.52;101168.09;107760;1250;81151;-57
2022/12/28 01:20:14;;;;;;;10.60;5.30;;;;;;;3.38;87.53;101165.13;107749;1250;82990;-57
2022/12/28 01:22:52;;;;;;;10.70;4.90;;;;;;;3.37;87.45;101163.61;107787;1250;97561;-50
2022/12/28 01:25:29;;;;;;;13.20;5.50;;;;;;;3.35;87.67;101163.92;107768;1252;89145;-53
2022/12/28 01:28:09;;;;;;;10.40;5.00;;;;;;;3.35;87.72;101165.36;107767;1250;93472;-57
2022/12/28 01:30:53;;;;;;;11.90;5.10;;;;;;;3.32;87.91;101166.71;107739;1250;80147;-57
2022/12/28 01:33:29;;;;;;;13.00;6.50;;;;;;;3.34;87.83;101159.38;107787;1250;83063;-58
2022/12/28 01:36:17;;;;;;;10.60;5.10;;;;;;;3.35;87.82;101155.52;107707;1250;98075;-52
2022/12/28 01:39:00;;;;;;;13.40;6.40;;;;;;;3.34;87.69;101158.48;107741;1252;89369;-54
2022/12/28 01:41:42;;;;;;;14.10;5.70;;;;;;;3.32;87.84;101156.20;107705;1250;94260;-57
2022/12/28 01:44:49;;;;;;;10.30;5.20;;;;;;;3.36;87.60;101155.17;107693;1252;81334;-56
2022/12/28 01:47:35;;;;;;;9.90;4.90;;;;;;;3.37;87.86;101149.48;107746;1250;82113;-52
2022/12/28 01:50:18;;;;;;;10.60;5.00;;;;;;;3.38;87.83;101153.92;107731;1250;97427;-59
2022/12/28 01:53:04;;;;;;;8.90;5.40;;;;;;;3.39;87.69;101150.98;107728;1252;89691;-58
2022/12/28 01:55:47;;;;;;;12.20;5.60;;;;;;;3.33;87.56;101153.04;107682;1250;94560;-59
2022/12/28 01:58:34;;;;;;;12.50;5.90;;;;;;;3.25;87.83;101157.82;107749;1249;78924;-59
2022/12/28 02:01:14;;;;;;;11.70;6.20;;;;;;;3.17;87.72;101160.84;107770;1249;82303;-49
2022/12/28 02:03:53;;;;;;;10.40;5.60;;;;;;;3.06;87.63;101153.71;107760;1250;97811;-52
2022/12/28 02:06:39;;;;;;;10.70;5.50;;;;;;;3.03;87.58;101158.06;107739;1250;89311;-57
2022/12/28 02:09:22;;;;;;;10.00;5.70;;;;;;;2.96;87.75;101158.38;107720;1250;94240;-59
2022/12/28 02:12:02;;;;;;;16.30;6.40;;;;;;;2.93;87.84;101156.44;107747;1250;79928;-58
2022/12/28 02:14:44;;;;;;;13.50;7.40;;;;;;;2.91;87.76;101156.09;107735;1250;83105;-50
2022/12/28 02:17:33;;;;;;;12.80;5.90;;;;;;;2.86;87.78;101152.73;107730;1250;97926;-49
2022/12/28 02:20:13;;;;;;;12.50;5.90;;;;;;;2.77;87.86;101149.78;107709;1252;87100;-57
2022/12/28 02:23:37;;;;;;;15.50;6.50;;;;;;;2.70;87.63;101143.73;107725;1249;95116;-59
2022/12/28 02:26:52;;;;;;;12.20;6.00;;;;;;;2.55;87.77;101140.85;107754;1249;80080;-58
2022/12/28 02:30:04;;;;;;;10.70;6.40;;;;;;;2.44;87.87;101134.80;107725;1250;82734;-57
2022/12/28 02:33:00;;;;;;;11.90;5.60;;;;;;;2.31;87.86;101128.03;107673;1250;98128;-57
2022/12/28 02:35:48;;;;;;;9.70;6.40;;;;;;;2.22;87.98;101128.36;107725;1250;88276;-58
2022/12/28 02:38:40;;;;;;;13.90;6.70;;;;;;;2.13;88.00;101129.73;107749;1252;94800;-57
2022/12/28 02:41:28;;;;;;;12.00;5.70;;;;;;;2.11;88.22;101130.31;107760;1250;79772;-58
2022/12/28 02:44:05;;;;;;;16.20;7.80;;;;;;;2.04;88.28;101132.41;107733;1250;82188;-58
2022/12/28 02:52:45;;;;;;;15.80;7.20;;;;;;;1.76;88.30;101130.67;107732;1250;94348;-59
2022/12/28 02:59:09;;;;;;;14.60;7.10;;;;;;;1.68;88.63;101125.60;107737;1251;83032;-59
2022/12/28 03:02:26;;;;;;;14.00;6.90;;;;;;;1.60;88.81;101129.35;107753;1249;97744;-58
2022/12/28 03:05:14;;;;;;;13.50;6.90;;;;;;;1.61;88.84;101128.38;107679;1250;88994;-57
2022/12/28 03:08:19;;;;;;;14.10;7.40;;;;;;;1.63;88.94;101131.30;107719;1249;92824;-56
2022/12/28 03:11:00;;;;;;;;;;;;;;;1.64;88.73;101137.23;107721;1250;81508;-58
2022/12/28 03:13:43;;;;;;;15.60;7.10;;;;;;;1.58;88.80;101137.48;107689;1251;82564;-58
2022/12/28 03:16:26;;;;;;;14.10;7.10;;;;;;;1.52;88.93;101135.29;107738;1250;98275;-59
2022/12/28 03:31:23;;;;;;;14.10;7.50;;;;;;;1.34;89.28;101133.98;107684;1251;96686;-58
2022/12/28 03:34:08;;;;;;;12.40;6.50;;;;;;;1.39;89.43;101131.70;107738;1250;88027;-58
2022/12/28 03:36:58;;;;;;;12.30;6.80;;;;;;;1.47;89.74;101129.64;107692;1251;94913;-46
2022/12/28 03:39:50;;;;;;;10.90;6.60;;;;;;;1.57;89.82;101124.48;107709;1249;80986;-58
2022/12/28 03:45:42;;;;;;;10.30;6.50;;;;;;;1.67;89.78;101111.30;107715;1250;99278;-58
2022/12/28 03:48:20;;;;;;;16.10;7.70;;;;;;;1.71;89.86;101108.48;107745;1250;89389;-58
2022/12/28 03:51:02;;;;;;;12.50;7.70;;;;;;;1.75;89.90;101106.36;107687;1250;94570;-59
2022/12/28 03:53:49;;;;;;;10.50;6.60;;;;;;;1.77;89.85;101103.21;107639;1250;81472;-56
2022/12/28 03:56:29;;;;;;;10.70;6.50;;;;;;;1.83;89.90;101090.04;107702;1251;82374;-57
2022/12/28 03:59:07;;;;;;;13.30;6.90;;;;;;;1.85;89.93;101081.15;107688;1252;98186;-58
2022/12/28 04:01:46;;;;;;;13.10;7.30;;;;;;;1.89;89.95;101070.21;107701;1250;87401;-59
2022/12/28 04:04:21;;;;;;;12.70;7.30;;;;;;;1.87;89.76;101063.39;107708;1250;91987;-58
2022/12/28 04:06:59;;;;;;;13.60;7.40;;;;;;;1.79;89.70;101059.57;107653;1250;78561;-58
2022/12/28 04:09:44;;;;;;;12.70;7.00;;;;;;;1.70;89.63;101058.11;107721;1252;81825;-57
2022/12/28 04:12:25;;;;;;;14.50;7.70;;;;;;;1.57;89.62;101061.29;107745;1251;98831;-54
2022/12/28 04:15:03;;;;;;;15.30;7.10;;;;;;;1.47;89.59;101055.64;107731;1250;89914;-57
2022/12/28 04:17:42;;;;;;;13.30;7.70;;;;;;;1.36;89.67;101063.60;107713;1251;93221;-59
2022/12/28 04:20:26;;;;;;;15.50;8.70;;;;;;;1.28;89.85;101068.48;107686;1252;81846;-58
2022/12/28 04:23:08;;;;;;;12.40;7.20;;;;;;;1.20;89.70;101073.64;107743;1251;83821;-60
2022/12/28 04:25:58;;;;;;;16.30;8.00;;;;;;;1.11;89.89;101068.97;107685;1250;99251;-59
2022/12/28 04:28:44;;;;;;;13.90;7.50;;;;;;;1.06;89.91;101070.09;107743;1253;88431;-58
2022/12/28 04:31:29;;;;;;;14.00;7.70;;;;;;;0.98;90.05;101070.54;107743;1250;94322;-53
2022/12/28 04:34:14;;;;;;;16.60;7.40;;;;;;;0.92;90.07;101074.30;107775;1250;80839;-56
2022/12/28 04:36:56;;;;;;;13.90;7.80;;;;;;;0.93;90.09;101071.59;107760;1251;83157;-58
2022/12/28 04:39:37;;;;;;;13.30;7.10;;;;;;;0.86;90.11;101072.08;107714;1250;96050;-58
2022/12/28 04:42:23;;;;;;;13.90;7.60;;;;;;;0.78;90.21;101074.30;107731;1252;89586;-56
2022/12/28 04:45:08;;;;;;;13.20;7.00;;;;;;;0.70;90.19;101079.88;107715;1252;94239;-53
2022/12/28 04:47:48;;;;;;;15.90;8.40;;;;;;;0.65;90.19;101086.24;107737;1250;78598;-58
2022/12/28 04:50:34;;;;;;;14.60;7.70;;;;;;;0.62;90.31;101083.20;107674;1250;82508;-58
2022/12/28 04:53:19;;;;;;;14.00;8.30;;;;;;;0.55;90.39;101076.06;107716;1251;95863;-57
2022/12/28 04:56:05;;;;;;;13.10;7.90;;;;;;;0.52;90.46;101074.89;107715;1251;89030;-50
2022/12/28 04:58:46;;;;;;;14.20;7.30;;;;;;;0.48;90.48;101074.80;107704;1253;95655;-55
2022/12/28 05:01:29;;;;;;;14.80;8.20;;;;;;;0.46;90.53;101067.90;107717;1252;79391;-59
2022/12/28 05:04:07;;;;;;;11.90;7.20;;;;;;;0.45;90.60;101066.77;107702;1252;81812;-57
2022/12/28 05:06:52;;;;;;;15.60;8.90;;;;;;;0.45;90.63;101062.81;107801;1251;97982;-57
2022/12/28 05:09:29;;;;;;;13.40;7.70;;;;;;;0.40;90.74;101065.86;107728;1249;88470;-56
2022/12/28 05:12:08;;;;;;;12.30;7.70;;;;;;;0.36;90.85;101065.77;107791;1253;94968;-60
2022/12/28 05:14:51;;;;;;;14.60;8.00;;;;;;;0.36;90.93;101067.52;107753;1253;81452;-59
2022/12/28 05:17:33;;;;;;;12.70;8.00;;;;;;;0.36;90.97;101067.03;107724;1256;83340;-58
2022/12/28 05:20:13;;;;;;;13.60;7.70;;;;;;;0.34;90.99;101063.08;107784;1251;98839;-59
2022/12/28 05:22:50;;;;;;;12.00;7.90;;;;;;;0.30;91.03;101057.16;107779;1253;87353;-58
2022/12/28 05:25:32;;;;;;;14.50;7.70;;;;;;;0.30;90.99;101051.48;107733;1251;94352;-59
2022/12/28 05:28:13;;;;;;;12.50;7.70;;;;;;;0.26;90.98;101057.29;107697;1249;80367;-58
2022/12/28 05:31:01;;;;;;;15.60;7.80;;;;;;;0.23;91.01;101062.48;107712;1253;82837;-58
2022/12/28 05:33:43;;;;;;;15.20;8.30;;;;;;;0.17;90.93;101055.50;107744;1251;97902;-59
2022/12/28 05:36:24;;;;;;;14.50;7.70;;;;;;;0.11;90.90;101054.65;107702;1251;88448;-58
2022/12/28 05:39:04;;;;;;;15.70;8.40;;;;;;;0.15;91.03;101051.20;107744;1251;93338;-60
2022/12/28 05:41:41;;;;;;;14.30;8.30;;;;;;;0.14;91.12;101049.63;107731;1251;79865;-57
2022/12/28 05:44:19;;;;;;;19.00;9.90;;;;;;;0.10;91.44;101048.14;107751;1253;82867;-55
2022/12/28 05:47:03;;;;;;;15.30;8.80;;;;;;;0.06;91.21;101045.99;107739;1251;98423;-57
2022/12/28 05:49:43;;;;;;;16.80;10.10;;;;;;;0.01;91.21;101040.80;107706;1253;86127;-58
2022/12/28 05:52:21;;;;;;;15.90;8.40;;;;;;;-0.02;91.33;101034.11;107730;1251;95886;-58
2022/12/28 05:55:02;;;;;;;16.50;8.40;;;;;;;-0.03;91.41;101029.54;107730;1251;81383;-59
2022/12/28 05:57:47;;;;;;;14.50;8.80;;;;;;;-0.03;91.45;101024.30;107770;1249;81918;-57
2022/12/28 06:00:27;;;;;;;18.30;9.50;;;;;;;-0.03;91.52;101027.84;107772;1250;98972;-54
2022/12/28 06:03:08;;;;;;;16.90;9.00;;;;;;;-0.04;91.61;101031.07;107783;1253;86833;-56
2022/12/28 06:05:46;;;;;;;14.00;9.30;;;;;;;-0.05;91.60;101036.11;107731;1251;95306;-58
2022/12/28 06:08:30;;;;;;;13.60;9.20;;;;;;;-0.03;91.69;101039.48;107753;1251;80287;-59
2022/12/28 06:11:10;;;;;;;17.60;9.60;;;;;;;-0.03;91.72;101031.36;107708;1251;83082;-58
2022/12/28 06:13:51;;;;;;;16.10;9.50;;;;;;;-0.03;91.84;101026.01;107774;1253;98551;-58
2022/12/28 06:16:32;;;;;;;16.50;10.20;;;;;;;-0.01;91.91;101026.76;107722;1253;87625;-57
2022/12/28 06:19:14;;;;;;;16.60;9.40;;;;;;;-0.00;91.90;101026.02;107719;1254;95968;-59
2022/12/28 06:21:57;;;;;;;17.60;10.60;;;;;;;-0.01;92.03;101025.54;107717;1250;77926;-63
2022/12/28 06:24:35;;;;;;;17.40;10.90;;;;;;;-0.00;91.86;101023.56;107716;1251;81914;-60
2022/12/28 06:27:19;;;;;;;17.90;10.20;;;;;;;-0.02;91.88;101022.27;107700;1251;99258;-61
2022/12/28 06:30:02;;;;;;;18.40;9.80;;;;;;;0.03;91.99;101018.70;107704;1251;88934;-60
2022/12/28 06:32:47;;;;;;;19.90;11.00;;;;;;;0.06;92.02;101021.71;107672;1249;95164;-56
2022/12/28 06:35:25;;;;;;;17.40;10.20;;;;;;;0.09;92.04;101027.16;107526;1251;78008;-57
2022/12/28 06:38:03;;;;;;;18.70;11.10;;;;;;;0.09;92.11;101027.89;107743;1251;80448;-57
2022/12/28 06:40:42;;;;;;;17.30;10.60;;;;;;;0.09;91.96;101025.39;107762;1250;99025;-58
2022/12/28 06:43:24;;;;;;;21.10;11.40;;;;;;;0.07;92.05;101022.89;107786;1251;86481;-59
2022/12/28 06:46:05;;;;;;;20.00;12.00;;;;;;;0.04;92.00;101016.34;107828;1251;93125;-58
2022/12/28 06:48:44;;;;;;;19.00;11.70;;;;;;;0.05;92.16;101008.52;107813;1251;80703;-53
2022/12/28 06:51:21;;;;;;;17.40;10.10;;;;;;;0.14;92.42;101012.98;107788;1251;83108;-65
2022/12/28 06:53:58;;;;;;;18.70;9.60;;;;;;;0.16;92.23;101014.29;107791;1251;98424;-61
2022/12/28 06:56:40;;;;;;;15.90;10.30;;;;;;;0.14;92.16;101011.21;107736;1251;89294;-61
2022/12/28 06:59:26;;;;;;;17.90;11.30;;;;;;;0.13;92.17;101007.20;107692;1253;95855;-60
2022/12/28 07:02:09;;;;;;;19.40;10.80;;;;;;;0.15;92.32;101006.73;107755;1253;79879;-60
2022/12/28 07:04:51;;;;;;;19.30;9.70;;;;;;;0.17;92.19;101004.47;107691;1252;82809;-55
2022/12/28 07:07:39;;;;;;;19.80;10.00;;;;;;;0.21;92.35;101003.06;107760;1253;97855;-59
2022/12/28 07:10:24;;;;;;;15.40;9.10;;;;;;;0.27;92.48;101000.33;107726;1249;87149;-61
2022/12/28 07:13:09;;;;;;;17.80;9.30;;;;;;;0.36;92.62;101002.02;107700;1251;95150;-58
2022/12/28 07:15:51;;;;;;;18.10;9.40;;;;;;;0.43;92.46;100990.71;107744;1250;76617;-60
2022/12/28 07:18:30;;;;;;;16.20;10.70;;;;;;;0.50;92.57;100984.52;107699;1251;81976;-57
2022/12/28 07:21:09;;;;;;;16.40;10.50;;;;;;;0.56;92.32;100980.68;107768;1251;97981;-63
2022/12/28 07:23:51;;;;;;;16.00;10.20;;;;;;;0.66;92.39;100977.66;107791;1249;86837;-61
2022/12/28 07:26:32;;;;;;;17.60;10.50;;;;;;;0.73;92.38;100974.85;107755;1251;93371;-66
2022/12/28 07:29:12;;;;;;;15.00;9.20;;;;;;;0.83;92.33;100967.55;107798;1249;80178;-65
2022/12/28 07:31:52;;;;;;;17.20;9.60;;;;;;;0.97;92.25;100974.13;107750;1251;81266;-55
2022/12/28 07:34:32;;;;;;;17.60;9.80;;;;;;;1.07;92.20;100968.53;107782;1249;97561;-54
2022/12/28 07:37:14;;;;;;;19.40;11.00;;;;;;;1.16;92.23;100964.50;107808;1251;88592;-60
2022/12/28 07:39:54;;;;;;;17.00;11.00;;;;;;;1.32;91.97;100967.75;107756;1253;94809;-62
2022/12/28 07:42:35;;;;;;;15.90;10.40;;;;;;;1.37;91.93;100967.55;107735;1252;80240;-62
2022/12/28 07:45:12;;;;;;;14.30;9.80;;;;;;;1.39;91.91;100970.02;107767;1251;83407;-63
2022/12/28 07:47:54;;;;;;;15.60;10.30;;;;;;;1.44;92.03;100968.34;107739;1251;96495;-60
2022/12/28 07:50:31;;;;;;;14.30;10.70;;;;;;;1.55;91.82;100967.18;107750;1251;88440;-63
2022/12/28 07:53:05;;;;;;;16.20;10.60;;;;;;;1.63;91.75;100963.19;107722;1250;94151;-61
2022/12/28 07:55:43;;;;;;;18.60;10.40;;;;;;;1.71;91.68;100967.30;107758;1253;81392;-62
2022/12/28 07:58:24;;;;;;;15.40;10.10;;;;;;;1.80;91.40;100968.23;107705;1251;81456;-61
2022/12/28 08:01:05;;;;;;;15.30;9.90;;;;;;;1.82;91.45;100967.52;107727;1251;97980;-64
2022/12/28 08:03:48;;;;;;;15.00;9.40;;;;;;;1.85;91.47;100968.19;107758;1250;88462;-62
2022/12/28 08:06:28;;;;;;;14.60;9.50;;;;;;;1.97;91.26;100971.55;107767;1251;92566;-61
2022/12/28 08:09:17;;;;;;;15.60;10.20;;;;;;;2.07;91.07;100968.77;107765;1249;79320;-61
2022/12/28 08:12:03;;;;;;;16.10;10.60;;;;;;;2.11;91.03;100957.42;107708;1251;81002;-62
2022/12/28 08:14:45;;;;;;;16.00;10.30;;;;;;;2.16;90.73;100953.63;107733;1253;98302;-66
2022/12/28 08:17:23;;;;;;;16.50;10.10;;;;;;;2.13;90.79;100948.41;107774;1251;87270;-61
2022/12/28 08:20:05;;;;;;;18.30;11.80;;;;;;;2.16;90.71;100952.23;107739;1252;94757;-54
2022/12/28 08:22:41;;;;;;;18.10;10.10;;;;;;;2.24;90.57;100951.20;107732;1251;80100;-62
2022/12/28 08:25:16;;;;;;;17.00;9.40;;;;;;;2.33;90.68;100951.73;107798;1251;82193;-61
2022/12/28 08:27:57;;;;;;;15.70;9.70;;;;;;;2.47;90.57;100949.70;107769;1251;98479;-62
2022/12/28 08:30:41;;;;;;;14.50;9.90;;;;;;;2.59;90.64;100954.39;107687;1251;87281;-62
2022/12/28 08:33:25;;;;;;;17.90;10.80;;;;;;;2.71;90.25;100952.15;107667;1254;94422;-63
2022/12/28 08:36:06;;;;;;;18.10;10.90;;;;;;;2.78;89.99;100950.30;107684;1251;79433;-60
2022/12/28 08:38:47;;;;;;;18.30;10.60;;;;;;;2.83;89.87;100950.60;107757;1251;82224;-57
2022/12/28 08:41:29;;;;;;;17.30;10.70;;;;;;;2.86;89.75;100958.88;107667;1249;98933;-63
2022/12/28 08:44:08;;;;;;;18.00;10.70;;;;;;;2.91;89.65;100956.70;107774;1251;89060;-60
2022/12/28 08:46:43;;;;;;;17.60;10.60;;;;;;;2.94;89.55;100953.41;107737;1250;92850;-62
2022/12/28 08:49:18;;;;;;;16.10;10.70;;;;;;;2.94;89.57;100948.59;107741;1251;78078;-63
2022/12/28 08:52:00;;;;;;;18.90;11.30;;;;;;;2.92;89.61;100947.52;107809;1250;83396;-62
2022/12/28 08:54:40;;;;;;;20.20;10.10;;;;;;;3.04;89.76;100945.02;107739;1251;97778;-60
2022/12/28 08:57:20;;;;;;;15.60;9.90;;;;;;;3.23;90.02;100947.78;107795;1251;88747;-61
2022/12/28 09:00:05;;;;;;;19.30;10.50;;;;;;;3.48;90.00;100945.46;107776;1251;94966;-57
2022/12/28 09:02:48;;;;;;;13.50;10.20;;;;;;;3.76;89.91;100941.66;107774;1251;79189;-63
2022/12/28 09:05:30;;;;;;;16.50;9.70;;;;;;;3.96;89.57;100942.31;107774;1251;83068;-62
2022/12/28 09:08:09;;;;;;;13.80;9.80;;;;;;;3.98;89.40;100939.13;107780;1250;98387;-62
2022/12/28 09:10:48;;;;;;;16.40;10.50;;;;;;;4.04;89.12;100939.50;107757;1250;89625;-62
2022/12/28 09:13:39;;;;;;;18.00;10.50;;;;;;;4.05;88.42;100937.05;107757;1251;94778;-62
2022/12/28 09:16:24;;;;;;;14.30;9.40;;;;;;;4.07;88.60;100940.80;107718;1251;77380;-62
2022/12/28 09:19:07;;;;;;;15.00;9.60;;;;;;;4.15;88.69;100939.33;107701;1251;80615;-63
2022/12/28 09:21:45;;;;;;;13.20;9.70;;;;;;;4.25;88.13;100929.77;107735;1251;99029;-58
2022/12/28 09:24:19;;;;;;;16.10;10.20;;;;;;;4.24;87.78;100933.93;107757;1251;88954;-55
2022/12/28 09:26:54;;;;;;;13.50;8.80;;;;;;;4.25;87.85;100930.89;107732;1251;95659;-63
2022/12/28 09:29:34;;;;;;;14.00;8.70;;;;;;;4.19;87.88;100931.39;107744;1251;79446;-64
2022/12/28 09:32:14;;;;;;;15.40;8.80;;;;;;;4.24;87.87;100920.05;107742;1251;81755;-62
2022/12/28 09:34:58;;;;;;;14.40;8.30;;;;;;;4.34;87.66;100923.29;107709;1253;96317;-61
2022/12/28 09:37:37;;;;;;;15.00;8.70;;;;;;;4.47;87.39;100912.63;107764;1250;89096;-65
2022/12/28 09:40:23;;;;;;;11.40;7.40;;;;;;;4.53;87.22;100905.49;107720;1251;96020;-60
2022/12/28 09:43:02;;;;;;;15.50;6.90;;;;;;;4.54;87.13;100894.36;107730;1254;79859;-68
2022/12/28 09:45:47;;;;;;;13.60;7.80;;;;;;;4.59;86.86;100890.09;107775;1250;82267;-58
2022/12/28 09:48:26;;;;;;;11.80;6.80;;;;;;;4.69;86.63;100880.98;107805;1250;97330;-59
2022/12/28 09:51:11;;;;;;;12.00;6.60;;;;;;;4.72;86.33;100877.52;107762;1249;88636;-60
2022/12/28 09:53:56;;;;;;;11.10;6.30;;;;;;;4.70;86.10;100873.56;107715;1251;95541;-60
2022/12/28 09:56:44;;;;;;;11.70;5.90;;;;;;;4.77;86.12;100861.31;107728;1249;79985;-55
2022/12/28 09:59:34;;;;;;;11.70;6.30;;;;;;;4.84;86.10;100857.17;107750;1250;82420;-58
2022/12/28 10:02:26;;;;;;;10.80;5.80;;;;;;;4.90;85.84;100849.27;107715;1251;99860;-61
2022/12/28 10:05:09;;;;;;;11.30;6.10;;;;;;;4.98;85.62;100840.43;107689;1251;89607;-61
2022/12/28 10:07:53;;;;;;;11.40;6.60;;;;;;;5.03;85.57;100839.42;107702;1251;94616;-52
2022/12/28 10:10:29;;;;;;;8.60;5.40;;;;;;;5.09;85.05;100838.71;107742;1249;79487;-51
2022/12/28 10:13:17;;;;;;;11.20;5.80;;;;;;;5.22;85.12;100841.52;107731;1251;83115;-56
2022/12/28 10:15:56;;;;;;;9.80;5.60;;;;;;;5.39;84.47;100834.42;107732;1250;98212;-59
2022/12/28 10:18:36;;;;;;;9.40;5.90;;;;;;;5.46;84.36;100830.70;107716;1249;87609;-60
2022/12/28 10:21:13;;;;;;;9.40;4.80;;;;;;;5.50;84.19;100829.79;107678;1251;97294;-53
2022/12/28 10:23:53;;;;;;;9.90;5.40;;;;;;;5.54;84.29;100828.54;107731;1251;78736;-58
2022/12/28 10:26:35;;;;;;;10.80;5.50;;;;;;;5.41;83.43;100824.78;107714;1250;82335;-58
2022/12/28 10:29:20;;;;;;;12.50;6.00;;;;;;;5.42;83.61;100823.98;107763;1250;98408;-59
2022/12/28 10:32:08;;;;;;;9.10;5.50;;;;;;;5.45;83.00;100820.13;107751;1250;89462;-59
2022/12/28 10:35:07;;;;;;;8.60;5.00;;;;;;;5.47;83.39;100813.33;107767;1252;95313;-58
2022/12/28 10:37:51;;;;;;;10.20;5.20;;;;;;;5.53;83.62;100805.52;107767;1251;78234;-58
2022/12/28 10:40:33;;;;;;;10.30;5.40;;;;;;;5.58;83.49;100797.73;107772;1251;82904;-59
2022/12/28 10:43:28;;;;;;;8.10;5.20;;;;;;;5.53;83.05;100794.33;107713;1250;96634;-59
2022/12/28 10:46:20;;;;;;;12.10;4.80;;;;;;;5.49;82.65;100798.48;107760;1250;86963;-61
2022/12/28 10:49:03;;;;;;;10.10;4.70;;;;;;;5.40;82.34;100797.55;107708;1252;93660;-57
2022/12/28 10:51:57;;;;;;;11.30;5.50;;;;;;;5.32;82.07;100796.52;107743;1250;79465;-61
2022/12/28 10:54:37;;;;;;;11.60;5.70;;;;;;;5.31;82.23;100787.47;107693;1249;83749;-58
2022/12/28 10:57:31;;;;;;;10.10;5.10;;;;;;;5.34;81.83;100782.77;107803;1251;97865;-57
2022/12/28 11:00:26;;;;;;;12.40;5.80;;;;;;;5.30;81.43;100770.75;107697;1251;89182;-62
2022/12/28 11:03:20;;;;;;;9.70;5.80;;;;;;;5.23;81.39;100763.25;107793;1250;95272;-60
2022/12/28 11:10:31;;;;;;;9.50;5.10;;;;;;;5.09;81.28;100750.50;107783;1250;80535;-60
2022/12/28 11:13:19;;;;;;;9.60;5.30;;;;;;;5.04;81.00;100748.31;107640;1251;97209;-61
2022/12/28 11:16:00;;;;;;;11.20;5.50;;;;;;;4.96;80.74;100734.44;107723;1251;86273;-54
2022/12/28 11:18:36;;;;;;;7.80;4.60;;;;;;;4.96;81.11;100731.60;107674;1251;94707;-59
2022/12/28 11:21:21;;;;;;;8.50;4.90;;;;;;;4.98;80.96;100723.59;107647;1256;81433;-61
2022/12/28 11:24:00;;;;;;;9.60;5.50;;;;;;;4.94;80.23;100721.27;107681;1251;82945;-61
2022/12/28 11:26:40;;;;;;;11.40;5.10;;;;;;;4.94;80.37;100726.05;107639;1251;96575;-60
2022/12/28 11:29:27;;;;;;;10.40;5.20;;;;;;;4.97;80.91;100723.81;107633;1251;88020;-61
2022/12/28 11:32:23;;;;;;;9.30;5.20;;;;;;;5.01;80.83;100728.03;107638;1251;94269;-60
2022/12/28 11:35:02;;;;;;;9.60;5.40;;;;;;;4.99;80.67;100728.83;107691;1251;78680;-61
2022/12/28 11:37:54;;;;;;;11.70;5.80;;;;;;;4.98;80.51;100730.48;107671;1251;82961;-60
2022/12/28 11:40:51;;;;;;;;;;;;;;;4.97;80.55;100724.70;107667;1251;99680;-61
2022/12/28 11:44:01;;;;;;;10.40;5.60;;;;;;;4.93;80.51;100715.15;107662;1251;87818;-59
2022/12/28 11:47:01;;;;;;;10.20;5.50;;;;;;;4.92;80.43;100708.45;107651;1251;93892;-60
2022/12/28 11:49:46;;;;;;;11.30;5.10;;;;;;;4.91;80.26;100710.65;107647;1251;81602;-53
2022/12/28 11:52:50;;;;;;;11.20;5.70;;;;;;;4.89;80.37;100708.35;107642;1251;82205;-61
2022/12/28 11:56:02;;;;;;;10.70;5.50;;;;;;;4.90;80.59;100698.11;107667;1251;96666;-51
2022/12/28 11:59:22;;;;;;;9.80;5.50;;;;;;;4.94;80.33;100685.98;107569;1251;89647;-58
2022/12/28 12:02:26;;;;;;;10.50;5.90;;;;;;;4.94;80.29;100683.39;107680;1251;94386;-62
2022/12/28 12:05:41;;;;;;;15.10;6.10;;;;;;;4.98;80.47;100668.40;107635;1251;78878;-56
2022/12/28 12:08:51;;;;;;;10.90;5.70;;;;;;;5.02;80.54;100664.09;107638;1251;83176;-59
2022/12/28 12:11:40;;;;;;;11.10;6.00;;;;;;;5.03;80.33;100656.86;107708;1251;99315;-59
2022/12/28 12:14:21;;;;;;;9.90;5.50;;;;;;;4.99;80.19;100649.21;107650;1251;88029;-62
2022/12/28 12:17:13;;;;;;;13.80;6.30;;;;;;;4.95;80.05;100640.02;107638;1256;93349;-58
2022/12/28 12:19:57;;;;;;;11.10;6.00;;;;;;;4.95;79.98;100634.21;107653;1251;78895;-59
2022/12/28 12:22:42;;;;;;;10.90;6.80;;;;;;;4.99;80.13;100636.16;107631;1251;82056;-55
2022/12/28 12:25:29;;;;;;;10.90;6.40;;;;;;;5.04;80.37;100628.17;107625;1251;97599;-59
2022/12/28 12:28:20;;;;;;;11.90;7.10;;;;;;;5.06;80.25;100616.58;107645;1254;88070;-59
2022/12/28 12:30:59;;;;;;;10.60;6.50;;;;;;;5.11;80.19;100610.19;107642;1255;95206;-61
2022/12/28 12:33:41;;;;;;;10.70;6.60;;;;;;;5.10;80.13;100603.55;107670;1251;77760;-61
2022/12/28 12:36:46;;;;;;;10.10;6.10;;;;;;;5.04;80.15;100606.64;107653;1251;83485;-61
2022/12/28 12:39:43;;;;;;;12.30;6.80;;;;;;;4.96;79.94;100604.17;107655;1251;98624;-60
2022/12/28 12:42:31;;;;;;;12.40;6.10;;;;;;;4.91;79.95;100599.55;107684;1251;88574;-60
2022/12/28 12:45:23;;;;;;;12.80;6.40;;;;;;;4.81;79.92;100592.98;107655;1256;94874;-60
2022/12/28 12:48:40;;;;;;;16.20;6.60;;;;;;;4.78;80.25;100593.33;107647;1251;81594;-59
2022/12/28 12:51:31;;;;;;;12.20;6.60;;;;;;;4.73;80.07;100602.14;107695;1251;83017;-60
2022/12/28 12:54:29;;;;;;;12.00;6.30;;;;;;;4.74;80.30;100594.70;107740;1251;96663;-58
2022/12/28 12:57:17;;;;;;;15.80;6.50;;;;;;;4.82;80.43;100593.82;107656;1251;87500;-60
2022/12/28 13:00:19;;;;;;;11.50;5.90;;;;;;;4.85;80.37;100583.46;107645;1251;95437;-60
2022/12/28 13:03:29;;;;;;;10.90;5.90;;;;;;;4.86;80.29;100573.20;107656;1251;77869;-59
2022/12/28 13:06:15;;;;;;;12.80;6.30;;;;;;;4.87;79.92;100565.63;107677;1251;82797;-60